createdAt,value
2024-04-05T00:00:16.191Z,16.07
2024-04-05T00:01:16.186Z,15.96
2024-04-05T00:02:16.189Z,15.96
2024-04-05T00:03:16.202Z,16.01
2024-04-05T00:04:16.180Z,16.07
2024-04-05T00:05:16.179Z,15.94
2024-04-05T00:06:16.176Z,15.90
2024-04-05T00:07:16.188Z,15.86
2024-04-05T00:08:16.174Z,16.04
2024-04-05T00:09:16.174Z,15.93
2024-04-05T00:10:16.164Z,15.92
2024-04-05T00:11:16.166Z,15.96
2024-04-05T00:12:16.166Z,15.87
2024-04-05T00:13:16.164Z,15.90
2024-04-05T00:14:16.155Z,15.83
2024-04-05T00:15:16.174Z,15.89
2024-04-05T00:16:16.149Z,15.93
2024-04-05T00:17:16.146Z,15.92
2024-04-05T00:18:16.143Z,15.96
2024-04-05T00:19:16.164Z,15.90
2024-04-05T00:20:16.151Z,15.94
2024-04-05T00:21:16.147Z,16.01
2024-04-05T00:22:16.144Z,16.05
2024-04-05T00:23:16.137Z,16.02
2024-04-05T00:24:16.134Z,16.09
2024-04-05T00:25:16.136Z,16.07
2024-04-05T00:26:16.129Z,16.02
2024-04-05T00:27:16.194Z,16.00
2024-04-05T00:28:16.133Z,16.00
2024-04-05T00:29:16.126Z,15.97
2024-04-05T00:30:16.141Z,16.04
2024-04-05T00:31:16.131Z,16.17
2024-04-05T00:32:16.122Z,16.05
2024-04-05T00:33:16.117Z,16.09
2024-04-05T00:34:16.129Z,16.12
2024-04-05T00:35:16.114Z,16.11
2024-04-05T00:36:16.131Z,16.09
2024-04-05T00:37:16.117Z,16.09
2024-04-05T00:38:16.103Z,16.12
2024-04-05T00:39:16.099Z,16.21
2024-04-05T00:40:16.098Z,16.24
2024-04-05T00:41:16.109Z,16.27
2024-04-05T00:42:16.093Z,16.35
2024-04-05T00:43:16.090Z,16.42
2024-04-05T00:44:16.102Z,16.42
2024-04-05T00:45:16.089Z,16.46
2024-04-05T00:46:16.087Z,16.50
2024-04-05T00:47:16.106Z,16.39
2024-04-05T00:48:16.084Z,16.41
2024-04-05T00:49:16.079Z,16.33
2024-04-05T00:50:16.075Z,16.39
2024-04-05T00:51:16.081Z,16.39
2024-04-05T00:52:16.090Z,16.25
2024-04-05T00:53:16.073Z,16.20
2024-04-05T00:54:16.073Z,16.12
2024-04-05T00:55:16.069Z,16.23
2024-04-05T00:56:16.074Z,16.23
2024-04-05T00:57:16.066Z,16.31
2024-04-05T00:58:16.065Z,16.15
2024-04-05T00:59:16.058Z,16.21
2024-04-05T01:00:16.058Z,16.25
2024-04-05T01:01:16.065Z,16.21
2024-04-05T01:02:16.059Z,16.28
2024-04-05T01:03:16.062Z,16.33
2024-04-05T01:04:16.106Z,16.21
2024-04-05T01:05:16.045Z,16.14
2024-04-05T01:06:16.041Z,16.17
2024-04-05T01:07:16.042Z,16.12
2024-04-05T01:08:16.040Z,16.21
2024-04-05T01:09:16.033Z,16.25
2024-04-05T01:10:16.037Z,16.20
2024-04-05T01:11:16.039Z,16.09
2024-04-05T01:12:16.028Z,16.11
2024-04-05T01:13:16.029Z,16.09
2024-04-05T01:14:16.028Z,16.07
2024-04-05T01:15:16.026Z,16.07
2024-04-05T01:16:16.028Z,16.00
2024-04-05T01:17:16.022Z,15.92
2024-04-05T01:18:16.020Z,15.92
2024-04-05T01:19:16.027Z,16.01
2024-04-05T01:20:16.014Z,15.94
2024-04-05T01:21:16.006Z,15.96
2024-04-05T01:22:16.016Z,16.01
2024-04-05T01:23:16.014Z,15.96
2024-04-05T01:24:16.012Z,16.00
2024-04-05T01:25:16.006Z,15.92
2024-04-05T01:26:16.004Z,15.89
2024-04-05T01:27:16.009Z,15.92
2024-04-05T01:28:16.003Z,15.69
2024-04-05T01:29:15.999Z,15.78
2024-04-05T01:30:15.990Z,15.76
2024-04-05T01:31:15.987Z,15.84
2024-04-05T01:32:15.998Z,15.87
2024-04-05T01:33:15.987Z,15.71
2024-04-05T01:34:15.983Z,15.86
2024-04-05T01:35:15.992Z,15.76
2024-04-05T01:36:15.982Z,15.74
2024-04-05T01:37:15.980Z,15.65
2024-04-05T01:38:15.974Z,15.74
2024-04-05T01:39:15.975Z,15.72
2024-04-05T01:40:15.989Z,15.65
2024-04-05T01:41:15.964Z,15.50
2024-04-05T01:42:15.966Z,15.54
2024-04-05T01:43:15.963Z,15.65
2024-04-05T01:44:15.963Z,15.64
2024-04-05T01:45:15.975Z,15.67
2024-04-05T01:46:15.955Z,15.64
2024-04-05T01:47:15.955Z,15.60
2024-04-05T01:48:15.953Z,15.68
2024-04-05T01:49:15.954Z,15.62
2024-04-05T01:50:15.944Z,15.68
2024-04-05T01:51:15.960Z,15.62
2024-04-05T01:52:15.944Z,15.60
2024-04-05T01:53:15.939Z,15.56
2024-04-05T01:54:15.936Z,15.60
2024-04-05T01:55:15.944Z,15.62
2024-04-05T01:56:15.931Z,15.71
2024-04-05T01:57:15.953Z,15.60
2024-04-05T01:58:15.928Z,15.64
2024-04-05T01:59:15.924Z,15.69
2024-04-05T02:00:15.934Z,15.64
2024-04-05T02:01:15.925Z,15.65
2024-04-05T02:02:15.917Z,15.67
2024-04-05T02:03:15.920Z,15.71
2024-04-05T02:04:15.917Z,15.65
2024-04-05T02:05:15.915Z,15.62
2024-04-05T02:06:15.924Z,15.71
2024-04-05T02:07:15.925Z,15.68
2024-04-05T02:08:15.903Z,15.76
2024-04-05T02:09:15.908Z,15.86
2024-04-05T02:10:15.901Z,15.87
2024-04-05T02:11:15.900Z,15.86
2024-04-05T02:12:15.904Z,15.86
2024-04-05T02:13:15.897Z,15.87
2024-04-05T02:14:15.911Z,15.92
2024-04-05T02:15:15.890Z,15.92
2024-04-05T02:16:15.899Z,15.90
2024-04-05T02:17:15.904Z,16.02
2024-04-05T02:18:15.888Z,15.96
2024-04-05T02:19:15.891Z,16.00
2024-04-05T02:20:15.884Z,16.04
2024-04-05T02:21:15.895Z,16.00
2024-04-05T02:22:15.876Z,16.00
2024-04-05T02:23:15.890Z,16.02
2024-04-05T02:24:15.873Z,16.05
2024-04-05T02:25:15.864Z,16.00
2024-04-05T02:26:15.867Z,15.96
2024-04-05T02:27:15.862Z,15.93
2024-04-05T02:28:15.866Z,15.90
2024-04-05T02:29:15.866Z,15.92
2024-04-05T02:30:15.860Z,15.93
2024-04-05T02:31:15.850Z,16.07
2024-04-05T02:32:15.853Z,16.04
2024-04-05T02:33:15.862Z,16.02
2024-04-05T02:34:15.846Z,15.89
2024-04-05T02:35:15.840Z,15.90
2024-04-05T02:36:15.841Z,15.92
2024-04-05T02:37:15.841Z,15.93
2024-04-05T02:38:15.840Z,16.05
2024-04-05T02:39:15.909Z,16.00
2024-04-05T02:40:15.835Z,16.08
2024-04-05T02:41:15.831Z,16.09
2024-04-05T02:42:15.831Z,16.09
2024-04-05T02:43:15.833Z,16.17
2024-04-05T02:44:15.825Z,16.21
2024-04-05T02:45:15.827Z,16.28
2024-04-05T02:46:15.823Z,16.27
2024-04-05T02:47:15.822Z,16.39
2024-04-05T02:48:15.814Z,16.24
2024-04-05T02:49:15.816Z,16.35
2024-04-05T02:50:15.812Z,16.33
2024-04-05T02:51:15.815Z,16.27
2024-04-05T02:52:15.836Z,16.23
2024-04-05T02:53:15.808Z,16.27
2024-04-05T02:54:18.964Z,16.15
2024-04-05T02:55:15.815Z,16.33
2024-04-05T02:56:15.807Z,16.23
2024-04-05T02:57:15.799Z,16.21
2024-04-05T02:58:15.796Z,16.17
2024-04-05T02:59:15.792Z,16.21
2024-04-05T03:00:15.791Z,16.11
2024-04-05T03:01:15.790Z,16.27
2024-04-05T03:02:15.784Z,16.09
2024-04-05T03:03:15.785Z,16.11
2024-04-05T03:04:15.790Z,16.20
2024-04-05T03:05:15.780Z,16.21
2024-04-05T03:06:15.774Z,16.25
2024-04-05T03:07:15.771Z,16.14
2024-04-05T03:08:15.781Z,16.20
2024-04-05T03:09:15.767Z,16.23
2024-04-05T03:10:15.767Z,16.24
2024-04-05T03:11:15.785Z,16.21
2024-04-05T03:12:15.763Z,16.15
2024-04-05T03:13:15.759Z,16.14
2024-04-05T03:14:15.760Z,16.11
2024-04-05T03:15:15.759Z,16.25
2024-04-05T03:16:15.759Z,16.31
2024-04-05T03:17:15.754Z,16.21
2024-04-05T03:18:15.758Z,15.92
2024-04-05T03:19:15.744Z,16.01
2024-04-05T03:20:15.745Z,16.00
2024-04-05T03:21:15.744Z,16.14
2024-04-05T03:22:15.756Z,16.09
2024-04-05T03:23:15.737Z,16.07
2024-04-05T03:24:15.757Z,16.04
2024-04-05T03:25:15.739Z,16.04
2024-04-05T03:26:15.744Z,16.01
2024-04-05T03:27:15.748Z,15.96
2024-04-05T03:28:15.734Z,16.01
2024-04-05T03:29:15.733Z,15.97
2024-04-05T03:30:15.725Z,16.01
2024-04-05T03:31:15.728Z,15.89
2024-04-05T03:32:15.734Z,15.86
2024-04-05T03:33:15.717Z,15.82
2024-04-05T03:34:15.717Z,15.86
2024-04-05T03:35:15.761Z,15.80
2024-04-05T03:36:15.725Z,15.76
2024-04-05T03:37:15.711Z,15.89
2024-04-05T03:39:14.587Z,15.92
2024-04-05T03:39:15.712Z,15.89
2024-04-05T03:40:15.708Z,15.94
2024-04-05T03:41:15.703Z,15.89
2024-04-05T03:42:15.699Z,15.97
2024-04-05T03:43:15.715Z,15.92
2024-04-05T03:44:15.727Z,15.86
2024-04-05T03:45:15.701Z,15.90
2024-04-05T03:46:15.686Z,15.89
2024-04-05T03:47:15.689Z,15.90
2024-04-05T03:48:15.690Z,15.87
2024-04-05T03:49:15.687Z,15.90
2024-04-05T03:50:15.681Z,15.87
2024-04-05T03:51:15.683Z,15.90
2024-04-05T03:52:15.676Z,15.83
2024-04-05T03:53:15.677Z,15.86
2024-04-05T03:54:15.671Z,15.89
2024-04-05T03:55:15.677Z,15.86
2024-04-05T03:56:15.681Z,15.74
2024-04-05T03:57:15.662Z,15.67
2024-04-05T03:58:15.662Z,15.62
2024-04-05T03:59:15.679Z,15.68
2024-04-05T04:00:15.663Z,15.62
2024-04-05T04:01:15.658Z,15.75
2024-04-05T04:02:15.656Z,15.83
2024-04-05T04:03:15.653Z,15.89
2024-04-05T04:04:15.650Z,15.87
2024-04-05T04:05:15.659Z,15.90
2024-04-05T04:06:15.648Z,15.89
2024-04-05T04:07:15.643Z,15.93
2024-04-05T04:08:15.647Z,15.93
2024-04-05T04:09:15.643Z,15.90
2024-04-05T04:10:15.643Z,15.92
2024-04-05T04:11:15.632Z,15.87
2024-04-05T04:12:15.639Z,15.93
2024-04-05T04:13:15.633Z,15.86
2024-04-05T04:14:15.626Z,15.97
2024-04-05T04:15:15.637Z,15.89
2024-04-05T04:16:18.521Z,15.87
2024-04-05T04:17:15.629Z,15.94
2024-04-05T04:18:15.622Z,15.89
2024-04-05T04:19:15.618Z,15.93
2024-04-05T04:20:15.615Z,15.97
2024-04-05T04:21:15.622Z,16.00
2024-04-05T04:22:15.624Z,15.93
2024-04-05T04:23:15.617Z,16.01
2024-04-05T04:24:15.623Z,15.97
2024-04-05T04:25:15.605Z,15.96
2024-04-05T04:26:15.605Z,15.96
2024-04-05T04:27:15.614Z,16.12
2024-04-05T04:28:15.924Z,16.09
2024-04-05T04:29:15.598Z,16.09
2024-04-05T04:30:15.592Z,16.01
2024-04-05T04:31:15.604Z,15.96
2024-04-05T04:32:15.597Z,15.96
2024-04-05T04:33:15.584Z,16.00
2024-04-05T04:34:15.593Z,16.05
2024-04-05T04:35:15.582Z,16.11
2024-04-05T04:36:15.596Z,16.11
2024-04-05T04:37:15.573Z,16.01
2024-04-05T04:38:15.897Z,16.02
2024-04-05T04:39:15.575Z,15.93
2024-04-05T04:40:15.575Z,15.86
2024-04-05T04:41:15.596Z,15.84
2024-04-05T04:42:15.571Z,15.90
2024-04-05T04:43:15.561Z,15.84
2024-04-05T04:44:15.568Z,15.93
2024-04-05T04:45:15.560Z,16.00
2024-04-05T04:46:15.556Z,15.90
2024-04-05T04:47:15.572Z,15.87
2024-04-05T04:48:15.547Z,16.02
2024-04-05T04:49:15.553Z,16.00
2024-04-05T04:50:15.554Z,15.76
2024-04-05T04:51:15.541Z,15.72
2024-04-05T04:52:15.542Z,15.86
2024-04-05T04:53:15.539Z,15.84
2024-04-05T04:54:15.542Z,15.86
2024-04-05T04:55:15.535Z,16.00
2024-04-05T04:56:15.544Z,15.90
2024-04-05T04:57:15.526Z,15.92
2024-04-05T04:58:15.525Z,15.86
2024-04-05T04:59:15.529Z,15.84
2024-04-05T05:00:15.528Z,15.83
2024-04-05T05:01:15.521Z,15.84
2024-04-05T05:02:15.520Z,15.72
2024-04-05T05:03:15.531Z,15.64
2024-04-05T05:04:15.521Z,15.62
2024-04-05T05:05:15.515Z,15.64
2024-04-05T05:06:15.512Z,15.72
2024-04-05T05:07:15.510Z,15.75
2024-04-05T05:08:15.704Z,15.71
2024-04-05T05:09:15.510Z,15.93
2024-04-05T05:10:15.527Z,15.74
2024-04-05T05:11:15.518Z,15.74
2024-04-05T05:12:15.518Z,15.87
2024-04-05T05:13:15.507Z,15.96
2024-04-05T05:14:15.493Z,15.94
2024-04-05T05:15:15.492Z,15.93
2024-04-05T05:16:15.492Z,15.89
2024-04-05T05:17:15.493Z,15.92
2024-04-05T05:18:15.486Z,15.92
2024-04-05T05:19:15.510Z,15.87
2024-04-05T05:20:15.486Z,15.89
2024-04-05T05:21:15.479Z,15.89
2024-04-05T05:22:15.483Z,15.84
2024-04-05T05:23:15.470Z,15.89
2024-04-05T05:24:15.487Z,15.86
2024-04-05T05:25:15.475Z,15.92
2024-04-05T05:26:15.486Z,15.96
2024-04-05T05:27:15.462Z,15.84
2024-04-05T05:28:15.461Z,15.89
2024-04-05T05:29:15.462Z,15.90
2024-04-05T05:30:15.455Z,15.86
2024-04-05T05:31:15.451Z,15.92
2024-04-05T05:32:15.455Z,15.93
2024-04-05T05:33:15.462Z,15.92
2024-04-05T05:34:15.447Z,15.92
2024-04-05T05:35:15.445Z,16.04
2024-04-05T05:36:15.444Z,16.00
2024-04-05T05:37:15.454Z,16.00
2024-04-05T05:38:15.447Z,15.87
2024-04-05T05:39:15.440Z,15.92
2024-04-05T05:40:15.450Z,15.93
2024-04-05T05:41:15.436Z,16.12
2024-04-05T05:42:15.434Z,16.12
2024-04-05T05:43:15.431Z,16.00
2024-04-05T05:44:15.429Z,16.05
2024-04-05T05:45:15.430Z,16.12
2024-04-05T05:46:15.437Z,16.08
2024-04-05T05:47:15.433Z,16.14
2024-04-05T05:48:15.417Z,16.09
2024-04-05T05:49:15.416Z,16.11
2024-04-05T05:50:15.411Z,16.25
2024-04-05T05:51:15.433Z,16.28
2024-04-05T05:52:15.411Z,16.35
2024-04-05T05:53:15.406Z,16.39
2024-04-05T05:54:15.399Z,16.39
2024-04-05T05:55:15.406Z,16.21
2024-04-05T05:56:15.402Z,16.21
2024-04-05T05:57:15.394Z,16.20
2024-04-05T05:58:15.393Z,16.34
2024-04-05T05:59:15.392Z,16.38
2024-04-05T06:00:15.391Z,16.25
2024-04-05T06:01:15.385Z,16.38
2024-04-05T06:02:15.386Z,16.33
2024-04-05T06:03:15.386Z,16.41
2024-04-05T06:04:15.378Z,16.48
2024-04-05T06:05:15.374Z,16.58
2024-04-05T06:06:15.374Z,16.57
2024-04-05T06:07:15.385Z,16.61
2024-04-05T06:08:15.373Z,16.64
2024-04-05T06:09:15.373Z,16.58
2024-04-05T06:10:15.365Z,16.66
2024-04-05T06:11:15.371Z,16.52
2024-04-05T06:12:15.360Z,16.66
2024-04-05T06:13:15.364Z,16.63
2024-04-05T06:14:15.357Z,16.58
2024-04-05T06:15:15.356Z,16.85
2024-04-05T06:16:15.354Z,16.93
2024-04-05T06:17:15.348Z,16.85
2024-04-05T06:18:15.356Z,16.86
2024-04-05T06:19:15.350Z,17.03
2024-04-05T06:20:15.352Z,17.16
2024-04-05T06:21:15.347Z,17.12
2024-04-05T06:22:15.347Z,17.08
2024-04-05T06:23:15.361Z,17.14
2024-04-05T06:24:15.342Z,17.11
2024-04-05T06:25:15.338Z,17.12
2024-04-05T06:26:15.346Z,17.14
2024-04-05T06:27:15.330Z,17.18
2024-04-05T06:28:15.344Z,17.37
2024-04-05T06:29:15.344Z,17.36
2024-04-05T06:30:15.330Z,17.22
2024-04-05T06:31:15.329Z,17.28
2024-04-05T06:32:15.319Z,17.22
2024-04-05T06:33:15.323Z,17.26
2024-04-05T06:34:15.321Z,17.30
2024-04-05T06:35:15.317Z,17.34
2024-04-05T06:36:15.324Z,17.49
2024-04-05T06:37:15.327Z,17.49
2024-04-05T06:38:15.320Z,17.52
2024-04-05T06:39:15.328Z,17.44
2024-04-05T06:40:15.306Z,17.59
2024-04-05T06:41:15.304Z,17.66
2024-04-05T06:42:15.307Z,17.70
2024-04-05T06:43:15.301Z,17.79
2024-04-05T06:44:15.304Z,17.81
2024-04-05T06:45:15.295Z,17.90
2024-04-05T06:46:15.293Z,17.96
2024-04-05T06:47:15.305Z,18.12
2024-04-05T06:48:15.288Z,18.21
2024-04-05T06:49:15.294Z,18.35
2024-04-05T06:50:15.291Z,18.36
2024-04-05T06:51:15.291Z,18.20
2024-04-05T06:52:15.293Z,18.47
2024-04-05T06:53:15.306Z,18.70
2024-04-05T06:54:15.285Z,18.70
2024-04-05T06:55:15.341Z,18.66
2024-04-05T06:56:15.285Z,18.85
2024-04-05T06:57:15.286Z,18.95
2024-04-05T06:58:15.277Z,18.92
2024-04-05T06:59:15.287Z,18.70
2024-04-05T07:00:15.290Z,18.65
2024-04-05T07:01:15.276Z,18.76
2024-04-05T07:02:15.275Z,19.02
2024-04-05T07:03:15.269Z,19.43
2024-04-05T07:04:15.269Z,19.88
2024-04-05T07:05:15.280Z,20.05
2024-04-05T07:06:15.276Z,20.54
2024-04-05T07:07:15.263Z,21.22
2024-04-05T07:08:15.260Z,21.29
2024-04-05T07:09:15.262Z,21.29
2024-04-05T07:10:15.838Z,21.54
2024-04-05T07:11:15.274Z,21.56
2024-04-05T07:12:15.263Z,21.46
2024-04-05T07:13:15.348Z,21.42
2024-04-05T07:14:15.260Z,21.58
2024-04-05T07:15:15.305Z,21.92
2024-04-05T07:16:15.257Z,22.27
2024-04-05T07:17:15.254Z,22.61
2024-04-05T07:18:15.253Z,23.16
2024-04-05T07:19:15.260Z,23.12
2024-04-05T07:20:15.248Z,23.20
2024-04-05T07:21:15.254Z,23.39
2024-04-05T07:22:15.252Z,23.55
2024-04-05T07:23:15.243Z,23.88
2024-04-05T07:24:15.254Z,24.13
2024-04-05T07:25:15.266Z,24.28
2024-04-05T07:26:15.251Z,24.65
2024-04-05T07:27:15.260Z,24.80
2024-04-05T07:28:15.255Z,24.67
2024-04-05T07:29:15.246Z,24.83
2024-04-05T07:30:15.255Z,24.96
2024-04-05T07:31:15.265Z,25.17
2024-04-05T07:32:15.257Z,24.88
2024-04-05T07:33:15.251Z,24.67
2024-04-05T07:34:15.254Z,24.96
2024-04-05T07:35:15.250Z,25.30
2024-04-05T07:36:15.261Z,25.25
2024-04-05T07:37:15.256Z,25.27
2024-04-05T07:38:15.253Z,25.21
2024-04-05T07:39:15.258Z,24.67
2024-04-05T07:40:15.273Z,24.62
2024-04-05T07:41:15.256Z,25.03
2024-04-05T07:42:15.256Z,25.30
2024-04-05T07:43:15.267Z,25.64
2024-04-05T07:44:15.262Z,25.97
2024-04-05T07:45:15.262Z,26.43
2024-04-05T07:46:15.271Z,26.01
2024-04-05T07:47:15.261Z,26.15
2024-04-05T07:48:15.264Z,26.23
2024-04-05T07:49:15.269Z,26.32
2024-04-05T07:50:15.274Z,26.45
2024-04-05T07:51:15.278Z,26.47
2024-04-05T07:52:15.270Z,26.33
2024-04-05T07:53:15.276Z,26.25
2024-04-05T07:54:15.273Z,25.82
2024-04-05T07:55:15.277Z,25.36
2024-04-05T07:56:15.283Z,25.51
2024-04-05T07:57:15.280Z,25.77
2024-04-05T07:58:15.284Z,25.23
2024-04-05T07:59:15.299Z,24.71
2024-04-05T08:00:15.295Z,24.10
2024-04-05T08:01:15.287Z,23.65
2024-04-05T08:02:15.297Z,23.39
2024-04-05T08:03:15.289Z,23.31
2024-04-05T08:04:15.293Z,23.13
2024-04-05T08:05:15.296Z,23.20
2024-04-05T08:06:15.292Z,23.10
2024-04-05T08:07:15.299Z,23.28
2024-04-05T08:08:15.303Z,23.25
2024-04-05T08:09:15.300Z,23.12
2024-04-05T08:10:15.311Z,22.94
2024-04-05T08:11:15.332Z,22.43
2024-04-05T08:12:15.308Z,22.43
2024-04-05T08:13:15.308Z,22.40
2024-04-05T08:14:15.304Z,22.46
2024-04-05T08:15:15.328Z,22.51
2024-04-05T08:16:15.315Z,23.01
2024-04-05T08:17:15.308Z,23.12
2024-04-05T08:18:15.312Z,23.23
2024-04-05T08:19:15.315Z,23.57
2024-04-05T08:20:15.309Z,23.51
2024-04-05T08:21:15.317Z,23.33
2024-04-05T08:22:15.316Z,23.54
2024-04-05T08:23:15.328Z,23.73
2024-04-05T08:24:15.322Z,23.60
2024-04-05T08:25:15.324Z,23.40
2024-04-05T08:26:15.317Z,23.32
2024-04-05T08:27:15.317Z,23.27
2024-04-05T08:28:15.322Z,23.09
2024-04-05T08:29:15.321Z,23.13
2024-04-05T08:30:15.322Z,22.62
2024-04-05T08:31:15.346Z,22.36
2024-04-05T08:32:15.327Z,22.30
2024-04-05T08:33:15.330Z,22.17
2024-04-05T08:34:15.341Z,22.14
2024-04-05T08:35:15.327Z,22.10
2024-04-05T08:36:15.340Z,22.17
2024-04-05T08:37:15.323Z,22.27
2024-04-05T08:38:15.321Z,22.47
2024-04-05T08:39:15.336Z,22.27
2024-04-05T08:40:15.331Z,22.30
2024-04-05T08:41:15.323Z,22.24
2024-04-05T08:42:15.324Z,22.24
2024-04-05T08:43:15.325Z,22.35
2024-04-05T08:44:15.328Z,22.24
2024-04-05T08:45:15.325Z,22.09
2024-04-05T08:46:15.327Z,21.96
2024-04-05T08:47:15.411Z,21.83
2024-04-05T08:48:15.326Z,21.49
2024-04-05T08:49:15.328Z,21.34
2024-04-05T08:50:15.332Z,21.25
2024-04-05T08:51:15.328Z,21.21
2024-04-05T08:52:15.333Z,21.10
2024-04-05T08:53:17.853Z,20.84
2024-04-05T08:54:15.330Z,20.97
2024-04-05T08:55:15.335Z,20.87
2024-04-05T08:56:15.329Z,20.89
2024-04-05T08:57:15.339Z,20.99
2024-04-05T08:58:15.330Z,21.16
2024-04-05T08:59:15.331Z,21.47
2024-04-05T09:00:15.326Z,21.71
2024-04-05T09:01:15.328Z,22.22
2024-04-05T09:02:15.340Z,22.73
2024-04-05T09:03:15.361Z,23.12
2024-04-05T09:04:15.330Z,23.28
2024-04-05T09:05:15.330Z,23.35
2024-04-05T09:06:15.324Z,23.78
2024-04-05T09:07:15.327Z,24.50
2024-04-05T09:08:15.338Z,24.95
2024-04-05T09:09:15.329Z,25.18
2024-04-05T09:10:15.329Z,25.64
2024-04-05T09:11:15.329Z,26.12
2024-04-05T09:12:15.334Z,26.48
2024-04-05T09:13:15.338Z,26.70
2024-04-05T09:14:15.331Z,26.72
2024-04-05T09:15:15.334Z,26.43
2024-04-05T09:16:15.347Z,26.66
2024-04-05T09:17:15.339Z,26.29
2024-04-05T09:18:15.343Z,26.52
2024-04-05T09:19:15.364Z,26.62
2024-04-05T09:20:15.353Z,26.45
2024-04-05T09:21:15.346Z,26.02
2024-04-05T09:22:15.358Z,25.43
2024-04-05T09:23:15.360Z,25.09
2024-04-05T09:24:15.361Z,24.90
2024-04-05T09:25:15.365Z,24.57
2024-04-05T09:26:15.362Z,24.60
2024-04-05T09:27:15.368Z,24.83
2024-04-05T09:28:15.371Z,25.24
2024-04-05T09:29:15.378Z,25.60
2024-04-05T09:30:15.374Z,25.65
2024-04-05T09:31:15.382Z,25.64
2024-04-05T09:32:15.385Z,25.91
2024-04-05T09:33:15.387Z,25.67
2024-04-05T09:34:15.394Z,25.64
2024-04-05T09:35:15.401Z,25.61
2024-04-05T09:36:15.401Z,25.55
2024-04-05T09:37:15.420Z,25.08
2024-04-05T09:38:15.408Z,24.96
2024-04-05T09:39:15.404Z,24.65
2024-04-05T09:40:15.416Z,24.60
2024-04-05T09:41:15.448Z,24.50
2024-04-05T09:42:15.416Z,24.34
2024-04-05T09:43:15.422Z,24.27
2024-04-05T09:44:21.431Z,23.80
2024-04-05T09:45:15.432Z,23.63
2024-04-05T09:46:15.426Z,23.38
2024-04-05T09:47:15.428Z,23.35
2024-04-05T09:48:15.433Z,23.12
2024-04-05T09:49:15.434Z,23.01
2024-04-05T09:50:15.434Z,22.82
2024-04-05T09:51:15.447Z,22.58
2024-04-05T09:52:15.435Z,22.42
2024-04-05T09:53:15.442Z,22.21
2024-04-05T09:54:15.446Z,22.35
2024-04-05T09:55:15.445Z,22.40
2024-04-05T09:56:15.446Z,22.28
2024-04-05T09:57:15.445Z,22.28
2024-04-05T09:58:15.447Z,22.40
2024-04-05T09:59:15.449Z,22.40
2024-04-05T10:00:15.454Z,22.37
2024-04-05T10:01:15.455Z,22.17
2024-04-05T10:02:15.453Z,22.21
2024-04-05T10:03:15.459Z,22.07
2024-04-05T10:04:15.464Z,21.79
2024-04-05T10:05:15.517Z,21.77
2024-04-05T10:06:15.461Z,21.75
2024-04-05T10:07:15.470Z,21.80
2024-04-05T10:08:15.453Z,21.86
2024-04-05T10:09:15.465Z,21.99
2024-04-05T10:10:15.467Z,22.02
2024-04-05T10:11:15.537Z,22.22
2024-04-05T10:12:15.647Z,21.98
2024-04-05T10:13:15.455Z,22.02
2024-04-05T10:14:15.470Z,22.05
2024-04-05T10:15:15.459Z,22.18
2024-04-05T10:16:15.463Z,22.57
2024-04-05T10:17:15.465Z,23.05
2024-04-05T10:18:15.472Z,23.23
2024-04-05T10:19:15.461Z,23.55
2024-04-05T10:20:15.500Z,23.61
2024-04-05T10:21:15.457Z,24.25
2024-04-05T10:22:15.461Z,24.50
2024-04-05T10:23:15.486Z,24.64
2024-04-05T10:24:15.465Z,25.20
2024-04-05T10:25:15.477Z,25.88
2024-04-05T10:26:15.469Z,26.62
2024-04-05T10:27:15.467Z,27.41
2024-04-05T10:28:15.466Z,27.47
2024-04-05T10:29:15.467Z,27.74
2024-04-05T10:30:15.480Z,28.00
2024-04-05T10:31:15.469Z,27.97
2024-04-05T10:32:15.476Z,27.79
2024-04-05T10:33:15.486Z,28.12
2024-04-05T10:34:15.489Z,28.96
2024-04-05T10:35:15.537Z,29.19
2024-04-05T10:36:15.493Z,29.05
2024-04-05T10:37:15.503Z,28.95
2024-04-05T10:38:24.174Z,29.30
2024-04-05T10:39:15.515Z,28.85
2024-04-05T10:40:15.507Z,28.98
2024-04-05T10:41:15.512Z,28.98
2024-04-05T10:42:15.518Z,28.52
2024-04-05T10:43:15.515Z,27.84
2024-04-05T10:44:15.528Z,27.29
2024-04-05T10:45:15.530Z,26.89
2024-04-05T10:46:15.533Z,26.48
2024-04-05T10:47:15.566Z,26.10
2024-04-05T10:48:15.542Z,25.85
2024-04-05T10:49:15.554Z,25.32
2024-04-05T10:50:15.557Z,25.18
2024-04-05T10:51:15.560Z,25.05
2024-04-05T10:52:15.561Z,25.08
2024-04-05T10:53:15.569Z,25.10
2024-04-05T10:54:15.581Z,24.98
2024-04-05T10:55:15.605Z,24.58
2024-04-05T10:56:15.588Z,24.67
2024-04-05T10:57:15.587Z,24.67
2024-04-05T10:58:15.598Z,24.95
2024-04-05T10:59:15.594Z,25.06
2024-04-05T11:00:15.599Z,25.10
2024-04-05T11:01:15.617Z,25.32
2024-04-05T11:02:15.626Z,25.55
2024-04-05T11:03:15.609Z,25.38
2024-04-05T11:04:15.616Z,25.39
2024-04-05T11:05:15.677Z,25.52
2024-04-05T11:06:15.948Z,25.80
2024-04-05T11:07:15.625Z,25.25
2024-04-05T11:08:15.627Z,25.50
2024-04-05T11:09:15.630Z,25.60
2024-04-05T11:10:26.598Z,25.91
2024-04-05T11:11:15.663Z,26.12
2024-04-05T11:12:15.637Z,26.63
2024-04-05T11:13:15.643Z,27.18
2024-04-05T11:14:15.645Z,27.29
2024-04-05T11:15:15.648Z,27.66
2024-04-05T11:16:15.655Z,28.14
2024-04-05T11:17:15.661Z,28.15
2024-04-05T11:18:15.668Z,28.61
2024-04-05T11:19:15.661Z,29.36
2024-04-05T11:20:15.670Z,29.64
2024-04-05T11:21:15.676Z,29.65
2024-04-05T11:22:15.695Z,29.76
2024-04-05T11:23:15.683Z,29.18
2024-04-05T11:24:15.695Z,28.27
2024-04-05T11:25:15.724Z,28.37
2024-04-05T11:26:15.702Z,28.17
2024-04-05T11:27:15.732Z,27.99
2024-04-05T11:28:15.714Z,27.34
2024-04-05T11:29:15.728Z,27.62
2024-04-05T11:30:15.738Z,27.94
2024-04-05T11:31:15.731Z,27.88
2024-04-05T11:32:15.731Z,27.78
2024-04-05T11:33:15.751Z,27.65
2024-04-05T11:34:15.743Z,28.18
2024-04-05T11:35:15.752Z,29.05
2024-04-05T11:36:15.769Z,29.28
2024-04-05T11:37:15.770Z,28.88
2024-04-05T11:38:15.790Z,29.09
2024-04-05T11:39:15.782Z,29.68
2024-04-05T11:40:25.881Z,30.00
2024-04-05T11:41:15.789Z,30.37
2024-04-05T11:42:15.791Z,30.16
2024-04-05T11:43:15.818Z,29.95
2024-04-05T11:44:15.823Z,29.83
2024-04-05T11:45:15.816Z,29.00
2024-04-05T11:46:15.858Z,29.04
2024-04-05T11:47:15.840Z,28.85
2024-04-05T11:48:15.843Z,28.52
2024-04-05T11:49:15.854Z,28.40
2024-04-05T11:50:15.851Z,28.29
2024-04-05T11:51:15.859Z,27.74
2024-04-05T11:52:15.857Z,27.07
2024-04-05T11:53:15.878Z,26.70
2024-04-05T11:54:15.884Z,26.62
2024-04-05T11:55:15.892Z,26.33
2024-04-05T11:56:15.879Z,26.06
2024-04-05T11:57:15.891Z,25.94
2024-04-05T11:58:15.891Z,25.83
2024-04-05T11:59:15.916Z,25.77
2024-04-05T12:00:15.911Z,25.39
2024-04-05T12:01:15.909Z,25.14
2024-04-05T12:02:15.916Z,25.51
2024-04-05T12:03:15.924Z,26.39
2024-04-05T12:04:15.922Z,27.04
2024-04-05T12:05:15.935Z,27.13
2024-04-05T12:06:15.927Z,27.65
2024-04-05T12:07:15.935Z,27.93
2024-04-05T12:08:15.938Z,28.64
2024-04-05T12:09:15.944Z,29.16
2024-04-05T12:10:15.962Z,29.49
2024-04-05T12:11:15.951Z,29.92
2024-04-05T12:12:15.959Z,30.08
2024-04-05T12:13:15.962Z,30.22
2024-04-05T12:14:18.085Z,29.79
2024-04-05T12:15:15.996Z,29.55
2024-04-05T12:16:15.984Z,28.95
2024-04-05T12:17:15.986Z,29.43
2024-04-05T12:18:15.983Z,29.95
2024-04-05T12:19:15.995Z,29.51
2024-04-05T12:20:16.010Z,28.78
2024-04-05T12:21:16.024Z,28.29
2024-04-05T12:22:16.018Z,28.30
2024-04-05T12:23:16.018Z,27.74
2024-04-05T12:24:16.035Z,27.70
2024-04-05T12:25:16.024Z,27.60
2024-04-05T12:26:16.862Z,27.25
2024-04-05T12:27:17.184Z,27.32
2024-04-05T12:28:16.060Z,27.25
2024-04-05T12:29:16.045Z,27.60
2024-04-05T12:30:16.051Z,27.92
2024-04-05T12:31:16.066Z,28.30
2024-04-05T12:32:16.065Z,28.58
2024-04-05T12:33:16.061Z,28.73
2024-04-05T12:34:16.086Z,28.62
2024-04-05T12:35:16.074Z,28.41
2024-04-05T12:36:16.080Z,27.99
2024-04-05T12:37:16.094Z,27.40
2024-04-05T12:38:30.856Z,27.25
2024-04-05T12:39:16.091Z,27.13
2024-04-05T12:40:16.097Z,27.32
2024-04-05T12:41:16.094Z,27.82
2024-04-05T12:42:16.097Z,27.79
2024-04-05T12:43:16.105Z,27.96
2024-04-05T12:44:19.024Z,28.18
2024-04-05T12:45:16.113Z,27.90
2024-04-05T12:46:16.126Z,27.74
2024-04-05T12:47:16.125Z,27.63
2024-04-05T12:48:16.126Z,27.65
2024-04-05T12:49:16.130Z,27.37
2024-04-05T12:50:19.674Z,27.10
2024-04-05T12:51:16.136Z,26.89
2024-04-05T12:52:16.140Z,26.85